sensor_id;sensor_type;location;lat;lon;timestamp;temperature;humidity
76567;DHT22;65428;53.194;6.132;2024-03-02T00:01:06;7.60;99.90
76567;DHT22;65428;53.194;6.132;2024-03-02T00:03:37;8.80;99.90
76567;DHT22;65428;53.194;6.132;2024-03-02T00:06:03;8.10;99.90
76567;DHT22;65428;53.194;6.132;2024-03-02T00:08:29;8.00;99.90
76567;DHT22;65428;53.194;6.132;2024-03-02T00:10:59;8.40;99.90
76567;DHT22;65428;53.194;6.132;2024-03-02T00:13:25;8.20;99.90
76567;DHT22;65428;53.194;6.132;2024-03-02T00:18:26;8.20;99.90
76567;DHT22;65428;53.194;6.132;2024-03-02T00:20:56;8.10;99.90
76567;DHT22;65428;53.194;6.132;2024-03-02T00:23:22;8.40;99.90
76567;DHT22;65428;53.194;6.132;2024-03-02T00:26:00;8.10;99.90
76567;DHT22;65428;53.194;6.132;2024-03-02T00:33:19;8.20;99.90
76567;DHT22;65428;53.194;6.132;2024-03-02T00:35:46;8.50;99.90
76567;DHT22;65428;53.194;6.132;2024-03-02T00:38:14;8.50;99.90
76567;DHT22;65428;53.194;6.132;2024-03-02T00:40:41;8.20;99.90
76567;DHT22;65428;53.194;6.132;2024-03-02T00:45:49;8.20;99.90
76567;DHT22;65428;53.194;6.132;2024-03-02T00:48:21;8.20;99.90
76567;DHT22;65428;53.194;6.132;2024-03-02T00:50:52;8.30;99.90
76567;DHT22;65428;53.194;6.132;2024-03-02T00:53:23;8.70;99.90
76567;DHT22;65428;53.194;6.132;2024-03-02T00:55:52;8.50;99.90
76567;DHT22;65428;53.194;6.132;2024-03-02T00:58:18;8.80;99.90
76567;DHT22;65428;53.194;6.132;2024-03-02T01:00:46;8.60;99.90
76567;DHT22;65428;53.194;6.132;2024-03-02T01:03:15;8.10;99.90
76567;DHT22;65428;53.194;6.132;2024-03-02T01:05:42;8.30;99.90
76567;DHT22;65428;53.194;6.132;2024-03-02T01:08:09;8.40;99.90
76567;DHT22;65428;53.194;6.132;2024-03-02T01:10:35;8.10;99.90
76567;DHT22;65428;53.194;6.132;2024-03-02T01:13:01;8.20;99.90
76567;DHT22;65428;53.194;6.132;2024-03-02T01:15:27;8.20;99.90
76567;DHT22;65428;53.194;6.132;2024-03-02T01:17:55;8.20;99.90
76567;DHT22;65428;53.194;6.132;2024-03-02T01:20:21;8.20;99.90
76567;DHT22;65428;53.194;6.132;2024-03-02T01:22:47;8.10;99.90
76567;DHT22;65428;53.194;6.132;2024-03-02T01:25:13;8.30;99.90
76567;DHT22;65428;53.194;6.132;2024-03-02T01:27:39;8.20;99.90
76567;DHT22;65428;53.194;6.132;2024-03-02T01:30:05;8.90;99.90
76567;DHT22;65428;53.194;6.132;2024-03-02T01:32:31;8.20;99.90
76567;DHT22;65428;53.194;6.132;2024-03-02T01:34:57;8.10;99.90
76567;DHT22;65428;53.194;6.132;2024-03-02T01:37:23;8.40;99.90
76567;DHT22;65428;53.194;6.132;2024-03-02T01:39:48;8.20;99.90
76567;DHT22;65428;53.194;6.132;2024-03-02T01:42:16;8.20;99.90
76567;DHT22;65428;53.194;6.132;2024-03-02T01:44:42;8.20;99.90
76567;DHT22;65428;53.194;6.132;2024-03-02T01:47:08;8.60;99.90
76567;DHT22;65428;53.194;6.132;2024-03-02T01:49:33;8.60;99.90
76567;DHT22;65428;53.194;6.132;2024-03-02T01:51:59;7.90;99.90
76567;DHT22;65428;53.194;6.132;2024-03-02T01:54:25;8.30;99.90
76567;DHT22;65428;53.194;6.132;2024-03-02T01:56:51;8.40;99.90
76567;DHT22;65428;53.194;6.132;2024-03-02T01:59:17;8.60;99.90
76567;DHT22;65428;53.194;6.132;2024-03-02T02:01:42;8.70;99.90
76567;DHT22;65428;53.194;6.132;2024-03-02T02:04:08;8.70;99.90
76567;DHT22;65428;53.194;6.132;2024-03-02T02:06:34;8.40;99.90
76567;DHT22;65428;53.194;6.132;2024-03-02T02:09:00;8.60;99.90
76567;DHT22;65428;53.194;6.132;2024-03-02T02:11:25;8.30;99.90
76567;DHT22;65428;53.194;6.132;2024-03-02T02:13:51;8.30;99.90
76567;DHT22;65428;53.194;6.132;2024-03-02T02:16:17;8.50;99.90
76567;DHT22;65428;53.194;6.132;2024-03-02T02:18:43;8.00;99.90
76567;DHT22;65428;53.194;6.132;2024-03-02T02:21:08;8.50;99.90
76567;DHT22;65428;53.194;6.132;2024-03-02T02:23:34;8.40;99.90
76567;DHT22;65428;53.194;6.132;2024-03-02T02:26:00;8.90;99.90
76567;DHT22;65428;53.194;6.132;2024-03-02T02:28:28;8.40;99.90
76567;DHT22;65428;53.194;6.132;2024-03-02T02:30:54;8.50;99.90
76567;DHT22;65428;53.194;6.132;2024-03-02T02:33:22;8.50;99.90
76567;DHT22;65428;53.194;6.132;2024-03-02T02:35:47;8.50;99.90
76567;DHT22;65428;53.194;6.132;2024-03-02T02:38:13;8.80;99.90
76567;DHT22;65428;53.194;6.132;2024-03-02T02:40:39;8.50;99.90
76567;DHT22;65428;53.194;6.132;2024-03-02T02:43:05;8.70;99.90
76567;DHT22;65428;53.194;6.132;2024-03-02T02:45:32;8.50;99.90
76567;DHT22;65428;53.194;6.132;2024-03-02T02:47:58;8.80;99.90
76567;DHT22;65428;53.194;6.132;2024-03-02T02:50:26;8.90;99.90
76567;DHT22;65428;53.194;6.132;2024-03-02T02:52:52;8.60;99.90
76567;DHT22;65428;53.194;6.132;2024-03-02T02:55:18;8.70;99.90
76567;DHT22;65428;53.194;6.132;2024-03-02T02:57:44;8.60;99.90
76567;DHT22;65428;53.194;6.132;2024-03-02T03:00:14;8.80;99.90
76567;DHT22;65428;53.194;6.132;2024-03-02T03:02:42;8.60;99.90
76567;DHT22;65428;53.194;6.132;2024-03-02T03:05:12;8.60;99.90
76567;DHT22;65428;53.194;6.132;2024-03-02T03:07:40;8.80;99.90
76567;DHT22;65428;53.194;6.132;2024-03-02T03:10:07;8.70;99.90
76567;DHT22;65428;53.194;6.132;2024-03-02T03:12:33;8.60;99.90
76567;DHT22;65428;53.194;6.132;2024-03-02T03:14:59;8.60;99.90
76567;DHT22;65428;53.194;6.132;2024-03-02T03:17:26;8.60;99.90
76567;DHT22;65428;53.194;6.132;2024-03-02T03:19:55;8.70;99.90
76567;DHT22;65428;53.194;6.132;2024-03-02T03:22:20;8.60;99.90
76567;DHT22;65428;53.194;6.132;2024-03-02T03:24:46;8.40;99.90
76567;DHT22;65428;53.194;6.132;2024-03-02T03:27:12;8.60;99.90
76567;DHT22;65428;53.194;6.132;2024-03-02T03:29:38;8.40;99.90
76567;DHT22;65428;53.194;6.132;2024-03-02T03:32:09;8.70;99.90
76567;DHT22;65428;53.194;6.132;2024-03-02T03:34:38;8.30;99.90
76567;DHT22;65428;53.194;6.132;2024-03-02T03:37:04;8.30;99.90
76567;DHT22;65428;53.194;6.132;2024-03-02T03:39:29;8.20;99.90
76567;DHT22;65428;53.194;6.132;2024-03-02T03:41:55;8.70;99.90
76567;DHT22;65428;53.194;6.132;2024-03-02T03:44:21;8.60;99.90
76567;DHT22;65428;53.194;6.132;2024-03-02T03:46:47;8.30;99.90
76567;DHT22;65428;53.194;6.132;2024-03-02T03:49:12;8.40;99.90
76567;DHT22;65428;53.194;6.132;2024-03-02T03:51:38;8.30;99.90
76567;DHT22;65428;53.194;6.132;2024-03-02T03:54:04;8.40;99.90
76567;DHT22;65428;53.194;6.132;2024-03-02T03:56:29;8.30;99.90
76567;DHT22;65428;53.194;6.132;2024-03-02T03:58:55;8.40;99.90
76567;DHT22;65428;53.194;6.132;2024-03-02T04:01:21;8.30;99.90
76567;DHT22;65428;53.194;6.132;2024-03-02T04:03:48;8.30;99.90
76567;DHT22;65428;53.194;6.132;2024-03-02T04:06:14;8.30;99.90
76567;DHT22;65428;53.194;6.132;2024-03-02T04:08:42;8.10;99.90
76567;DHT22;65428;53.194;6.132;2024-03-02T04:11:07;9.00;99.90
76567;DHT22;65428;53.194;6.132;2024-03-02T04:13:33;8.50;99.90
76567;DHT22;65428;53.194;6.132;2024-03-02T04:15:59;8.90;99.90
76567;DHT22;65428;53.194;6.132;2024-03-02T04:18:25;8.50;99.90
76567;DHT22;65428;53.194;6.132;2024-03-02T04:20:50;8.60;99.90
76567;DHT22;65428;53.194;6.132;2024-03-02T04:23:16;8.20;99.90
76567;DHT22;65428;53.194;6.132;2024-03-02T04:25:42;8.30;99.90
76567;DHT22;65428;53.194;6.132;2024-03-02T04:28:07;8.10;99.90
76567;DHT22;65428;53.194;6.132;2024-03-02T04:30:33;8.40;99.90
76567;DHT22;65428;53.194;6.132;2024-03-02T04:32:59;8.20;99.90
76567;DHT22;65428;53.194;6.132;2024-03-02T04:35:25;8.00;99.90
76567;DHT22;65428;53.194;6.132;2024-03-02T04:37:51;8.10;99.90
76567;DHT22;65428;53.194;6.132;2024-03-02T04:40:19;8.20;99.90
76567;DHT22;65428;53.194;6.132;2024-03-02T04:42:45;8.00;99.90
76567;DHT22;65428;53.194;6.132;2024-03-02T04:45:11;7.90;99.90
76567;DHT22;65428;53.194;6.132;2024-03-02T04:47:36;8.40;99.90
76567;DHT22;65428;53.194;6.132;2024-03-02T04:50:02;8.00;99.90
76567;DHT22;65428;53.194;6.132;2024-03-02T04:52:28;7.80;99.90
76567;DHT22;65428;53.194;6.132;2024-03-02T04:54:54;7.70;99.90
76567;DHT22;65428;53.194;6.132;2024-03-02T04:57:38;8.00;99.90
76567;DHT22;65428;53.194;6.132;2024-03-02T05:00:04;7.70;99.90
76567;DHT22;65428;53.194;6.132;2024-03-02T05:02:34;7.60;99.90
76567;DHT22;65428;53.194;6.132;2024-03-02T05:05:00;7.90;99.90
76567;DHT22;65428;53.194;6.132;2024-03-02T05:07:26;7.80;99.90
76567;DHT22;65428;53.194;6.132;2024-03-02T05:09:52;7.90;99.90
76567;DHT22;65428;53.194;6.132;2024-03-02T05:12:17;7.90;99.90
76567;DHT22;65428;53.194;6.132;2024-03-02T05:15:02;7.80;99.90
76567;DHT22;65428;53.194;6.132;2024-03-02T05:17:28;7.80;99.90
76567;DHT22;65428;53.194;6.132;2024-03-02T05:19:54;8.00;99.90
76567;DHT22;65428;53.194;6.132;2024-03-02T05:22:19;8.10;99.90
76567;DHT22;65428;53.194;6.132;2024-03-02T05:24:47;7.90;99.90
76567;DHT22;65428;53.194;6.132;2024-03-02T05:27:13;7.80;99.90
76567;DHT22;65428;53.194;6.132;2024-03-02T05:29:40;8.10;99.90
76567;DHT22;65428;53.194;6.132;2024-03-02T05:32:06;7.80;99.90
76567;DHT22;65428;53.194;6.132;2024-03-02T05:34:31;7.80;99.90
76567;DHT22;65428;53.194;6.132;2024-03-02T05:37:00;7.70;99.90
76567;DHT22;65428;53.194;6.132;2024-03-02T05:39:25;7.60;99.90
76567;DHT22;65428;53.194;6.132;2024-03-02T05:41:51;7.80;99.90
76567;DHT22;65428;53.194;6.132;2024-03-02T05:44:17;7.20;99.90
76567;DHT22;65428;53.194;6.132;2024-03-02T05:46:44;7.50;99.90
76567;DHT22;65428;53.194;6.132;2024-03-02T05:49:10;7.30;99.90
76567;DHT22;65428;53.194;6.132;2024-03-02T05:51:36;7.30;99.90
76567;DHT22;65428;53.194;6.132;2024-03-02T05:54:02;7.20;99.90
76567;DHT22;65428;53.194;6.132;2024-03-02T05:56:28;7.10;99.90
76567;DHT22;65428;53.194;6.132;2024-03-02T05:58:53;7.20;99.90
76567;DHT22;65428;53.194;6.132;2024-03-02T06:01:45;7.60;99.90
76567;DHT22;65428;53.194;6.132;2024-03-02T06:04:17;7.20;99.90
76567;DHT22;65428;53.194;6.132;2024-03-02T06:06:43;6.90;99.90
76567;DHT22;65428;53.194;6.132;2024-03-02T06:09:09;7.00;99.90
76567;DHT22;65428;53.194;6.132;2024-03-02T06:11:38;7.00;99.90
76567;DHT22;65428;53.194;6.132;2024-03-02T06:14:04;6.80;99.90
76567;DHT22;65428;53.194;6.132;2024-03-02T06:16:30;6.90;99.90
76567;DHT22;65428;53.194;6.132;2024-03-02T06:18:56;6.90;99.90
76567;DHT22;65428;53.194;6.132;2024-03-02T06:21:25;6.70;99.90
76567;DHT22;65428;53.194;6.132;2024-03-02T06:23:51;6.50;99.90
76567;DHT22;65428;53.194;6.132;2024-03-02T06:26:17;6.40;99.90
76567;DHT22;65428;53.194;6.132;2024-03-02T06:28:44;6.30;99.90
76567;DHT22;65428;53.194;6.132;2024-03-02T06:31:10;6.40;99.90
76567;DHT22;65428;53.194;6.132;2024-03-02T06:33:35;6.60;99.90
76567;DHT22;65428;53.194;6.132;2024-03-02T06:36:01;6.50;99.90
76567;DHT22;65428;53.194;6.132;2024-03-02T06:38:27;6.10;99.90
76567;DHT22;65428;53.194;6.132;2024-03-02T06:40:53;6.80;99.90
76567;DHT22;65428;53.194;6.132;2024-03-02T06:43:19;6.40;99.90
76567;DHT22;65428;53.194;6.132;2024-03-02T06:45:49;6.10;99.90
76567;DHT22;65428;53.194;6.132;2024-03-02T06:48:15;6.20;99.90
76567;DHT22;65428;53.194;6.132;2024-03-02T06:50:49;6.30;99.90
76567;DHT22;65428;53.194;6.132;2024-03-02T06:53:15;6.00;99.90
76567;DHT22;65428;53.194;6.132;2024-03-02T06:55:46;6.00;99.90
76567;DHT22;65428;53.194;6.132;2024-03-02T06:58:13;6.20;99.90
76567;DHT22;65428;53.194;6.132;2024-03-02T07:00:40;6.20;99.90
76567;DHT22;65428;53.194;6.132;2024-03-02T07:03:06;6.40;99.90
76567;DHT22;65428;53.194;6.132;2024-03-02T07:05:32;6.40;99.90
76567;DHT22;65428;53.194;6.132;2024-03-02T07:07:57;6.80;99.90
76567;DHT22;65428;53.194;6.132;2024-03-02T07:10:23;6.60;99.90
76567;DHT22;65428;53.194;6.132;2024-03-02T07:12:49;6.80;99.90
76567;DHT22;65428;53.194;6.132;2024-03-02T07:15:18;6.80;99.90
76567;DHT22;65428;53.194;6.132;2024-03-02T07:18:04;6.70;99.90
76567;DHT22;65428;53.194;6.132;2024-03-02T07:20:30;6.80;99.90
76567;DHT22;65428;53.194;6.132;2024-03-02T07:22:55;7.20;99.90
76567;DHT22;65428;53.194;6.132;2024-03-02T07:25:21;7.40;99.90
76567;DHT22;65428;53.194;6.132;2024-03-02T07:27:47;7.20;99.90
76567;DHT22;65428;53.194;6.132;2024-03-02T07:30:15;7.10;99.90
76567;DHT22;65428;53.194;6.132;2024-03-02T07:32:44;7.20;99.90
76567;DHT22;65428;53.194;6.132;2024-03-02T07:35:14;7.30;99.90
76567;DHT22;65428;53.194;6.132;2024-03-02T07:37:41;7.30;99.90
76567;DHT22;65428;53.194;6.132;2024-03-02T07:40:08;7.20;99.90
76567;DHT22;65428;53.194;6.132;2024-03-02T07:42:38;7.30;99.90
76567;DHT22;65428;53.194;6.132;2024-03-02T07:45:04;7.40;99.90
76567;DHT22;65428;53.194;6.132;2024-03-02T07:47:30;7.40;99.90
76567;DHT22;65428;53.194;6.132;2024-03-02T07:49:56;7.60;99.90
76567;DHT22;65428;53.194;6.132;2024-03-02T07:52:21;7.50;99.90
76567;DHT22;65428;53.194;6.132;2024-03-02T07:54:48;8.00;99.90
76567;DHT22;65428;53.194;6.132;2024-03-02T07:57:13;8.00;99.90
76567;DHT22;65428;53.194;6.132;2024-03-02T07:59:39;8.00;99.90
76567;DHT22;65428;53.194;6.132;2024-03-02T08:02:05;8.10;99.90
76567;DHT22;65428;53.194;6.132;2024-03-02T08:04:31;7.90;99.90
76567;DHT22;65428;53.194;6.132;2024-03-02T08:06:57;8.20;99.90
76567;DHT22;65428;53.194;6.132;2024-03-02T08:09:23;7.80;99.90
76567;DHT22;65428;53.194;6.132;2024-03-02T08:11:49;7.90;99.90
76567;DHT22;65428;53.194;6.132;2024-03-02T08:14:14;7.90;99.90
76567;DHT22;65428;53.194;6.132;2024-03-02T08:16:41;8.10;99.90
76567;DHT22;65428;53.194;6.132;2024-03-02T08:19:07;8.20;99.90
76567;DHT22;65428;53.194;6.132;2024-03-02T08:21:34;8.10;99.90
76567;DHT22;65428;53.194;6.132;2024-03-02T08:24:01;8.30;99.90
76567;DHT22;65428;53.194;6.132;2024-03-02T08:26:27;7.90;99.90
76567;DHT22;65428;53.194;6.132;2024-03-02T08:29:00;8.40;99.90
76567;DHT22;65428;53.194;6.132;2024-03-02T08:31:30;8.60;99.90
76567;DHT22;65428;53.194;6.132;2024-03-02T08:33:56;8.60;99.90
76567;DHT22;65428;53.194;6.132;2024-03-02T08:36:23;8.70;99.90
76567;DHT22;65428;53.194;6.132;2024-03-02T08:38:50;8.70;99.90
76567;DHT22;65428;53.194;6.132;2024-03-02T08:41:15;9.50;99.90
76567;DHT22;65428;53.194;6.132;2024-03-02T08:43:42;9.10;99.90
76567;DHT22;65428;53.194;6.132;2024-03-02T08:46:08;8.90;99.90
76567;DHT22;65428;53.194;6.132;2024-03-02T08:48:34;8.90;99.90
76567;DHT22;65428;53.194;6.132;2024-03-02T08:51:00;9.30;99.90
76567;DHT22;65428;53.194;6.132;2024-03-02T08:53:26;9.40;99.90
76567;DHT22;65428;53.194;6.132;2024-03-02T08:55:51;9.80;99.90
76567;DHT22;65428;53.194;6.132;2024-03-02T08:58:17;9.60;99.90
76567;DHT22;65428;53.194;6.132;2024-03-02T09:00:43;9.80;99.90
76567;DHT22;65428;53.194;6.132;2024-03-02T09:03:09;9.80;99.90
76567;DHT22;65428;53.194;6.132;2024-03-02T09:05:35;9.40;99.90
76567;DHT22;65428;53.194;6.132;2024-03-02T09:08:04;9.40;99.90
76567;DHT22;65428;53.194;6.132;2024-03-02T09:10:30;9.40;99.90
76567;DHT22;65428;53.194;6.132;2024-03-02T09:12:56;9.50;99.90
76567;DHT22;65428;53.194;6.132;2024-03-02T09:15:22;9.50;99.90
76567;DHT22;65428;53.194;6.132;2024-03-02T09:17:47;9.60;99.90
76567;DHT22;65428;53.194;6.132;2024-03-02T09:20:13;9.40;99.90
76567;DHT22;65428;53.194;6.132;2024-03-02T09:22:44;9.70;99.90
76567;DHT22;65428;53.194;6.132;2024-03-02T09:25:12;9.10;99.90
76567;DHT22;65428;53.194;6.132;2024-03-02T09:27:39;9.70;99.90
76567;DHT22;65428;53.194;6.132;2024-03-02T09:30:07;9.30;99.90
76567;DHT22;65428;53.194;6.132;2024-03-02T09:32:33;9.30;99.90
76567;DHT22;65428;53.194;6.132;2024-03-02T09:34:59;9.60;99.90
76567;DHT22;65428;53.194;6.132;2024-03-02T09:37:24;9.50;99.90
76567;DHT22;65428;53.194;6.132;2024-03-02T09:39:50;9.90;99.90
76567;DHT22;65428;53.194;6.132;2024-03-02T09:42:20;10.00;99.90
76567;DHT22;65428;53.194;6.132;2024-03-02T09:44:47;9.90;99.90
76567;DHT22;65428;53.194;6.132;2024-03-02T09:47:13;10.00;99.90
76567;DHT22;65428;53.194;6.132;2024-03-02T09:49:39;10.10;99.90
76567;DHT22;65428;53.194;6.132;2024-03-02T09:52:05;10.40;99.90
76567;DHT22;65428;53.194;6.132;2024-03-02T09:54:35;10.20;99.90
76567;DHT22;65428;53.194;6.132;2024-03-02T09:57:02;10.40;99.90
76567;DHT22;65428;53.194;6.132;2024-03-02T09:59:28;10.30;99.90
76567;DHT22;65428;53.194;6.132;2024-03-02T10:01:58;10.40;99.90
76567;DHT22;65428;53.194;6.132;2024-03-02T10:04:26;10.80;99.90
76567;DHT22;65428;53.194;6.132;2024-03-02T10:07:09;10.60;99.90
76567;DHT22;65428;53.194;6.132;2024-03-02T10:09:36;11.10;99.90
76567;DHT22;65428;53.194;6.132;2024-03-02T10:12:06;11.40;99.90
76567;DHT22;65428;53.194;6.132;2024-03-02T10:14:33;11.60;99.90
76567;DHT22;65428;53.194;6.132;2024-03-02T10:17:09;11.90;99.90
76567;DHT22;65428;53.194;6.132;2024-03-02T10:19:36;12.00;99.90
76567;DHT22;65428;53.194;6.132;2024-03-02T10:22:09;12.40;99.90
76567;DHT22;65428;53.194;6.132;2024-03-02T10:24:40;12.20;99.90
76567;DHT22;65428;53.194;6.132;2024-03-02T10:27:10;12.10;97.20
76567;DHT22;65428;53.194;6.132;2024-03-02T10:29:40;12.30;97.90
76567;DHT22;65428;53.194;6.132;2024-03-02T10:32:09;12.60;97.00
76567;DHT22;65428;53.194;6.132;2024-03-02T10:34:35;12.50;94.00
76567;DHT22;65428;53.194;6.132;2024-03-02T10:37:01;12.60;96.10
76567;DHT22;65428;53.194;6.132;2024-03-02T10:39:28;12.30;99.90
76567;DHT22;65428;53.194;6.132;2024-03-02T10:41:55;12.60;96.30
76567;DHT22;65428;53.194;6.132;2024-03-02T10:44:22;12.50;93.50
76567;DHT22;65428;53.194;6.132;2024-03-02T10:46:49;12.50;94.20
76567;DHT22;65428;53.194;6.132;2024-03-02T10:49:19;12.80;94.60
76567;DHT22;65428;53.194;6.132;2024-03-02T10:51:46;13.40;99.50
76567;DHT22;65428;53.194;6.132;2024-03-02T10:54:12;13.50;91.20
76567;DHT22;65428;53.194;6.132;2024-03-02T10:56:42;13.70;78.30
76567;DHT22;65428;53.194;6.132;2024-03-02T10:59:21;13.60;83.50
76567;DHT22;65428;53.194;6.132;2024-03-02T11:01:50;13.60;70.00
76567;DHT22;65428;53.194;6.132;2024-03-02T11:04:29;13.70;71.90
76567;DHT22;65428;53.194;6.132;2024-03-02T11:07:05;14.50;77.80
76567;DHT22;65428;53.194;6.132;2024-03-02T11:09:34;14.30;65.80
76567;DHT22;65428;53.194;6.132;2024-03-02T11:12:06;14.60;62.50
76567;DHT22;65428;53.194;6.132;2024-03-02T11:14:41;14.80;58.90
76567;DHT22;65428;53.194;6.132;2024-03-02T11:17:21;14.80;56.60
76567;DHT22;65428;53.194;6.132;2024-03-02T11:19:47;14.90;56.40
76567;DHT22;65428;53.194;6.132;2024-03-02T11:22:14;15.10;57.70
76567;DHT22;65428;53.194;6.132;2024-03-02T11:24:51;15.30;60.30
76567;DHT22;65428;53.194;6.132;2024-03-02T11:32:58;16.30;58.30
76567;DHT22;65428;53.194;6.132;2024-03-02T11:35:27;16.60;53.80
76567;DHT22;65428;53.194;6.132;2024-03-02T11:37:56;17.00;55.70
76567;DHT22;65428;53.194;6.132;2024-03-02T11:40:30;16.90;51.50
76567;DHT22;65428;53.194;6.132;2024-03-02T11:43:00;16.80;52.80
76567;DHT22;65428;53.194;6.132;2024-03-02T11:45:31;17.30;52.60
76567;DHT22;65428;53.194;6.132;2024-03-02T11:48:14;17.40;50.80
76567;DHT22;65428;53.194;6.132;2024-03-02T11:50:47;17.50;49.20
76567;DHT22;65428;53.194;6.132;2024-03-02T11:54:01;17.60;49.60
76567;DHT22;65428;53.194;6.132;2024-03-02T11:56:28;17.70;51.80
76567;DHT22;65428;53.194;6.132;2024-03-02T11:58:56;18.30;49.10
76567;DHT22;65428;53.194;6.132;2024-03-02T12:01:23;18.20;48.80
76567;DHT22;65428;53.194;6.132;2024-03-02T12:03:49;18.30;48.40
76567;DHT22;65428;53.194;6.132;2024-03-02T12:06:15;18.40;46.80
76567;DHT22;65428;53.194;6.132;2024-03-02T12:08:52;18.60;48.50
76567;DHT22;65428;53.194;6.132;2024-03-02T12:11:22;18.80;45.80
76567;DHT22;65428;53.194;6.132;2024-03-02T12:13:57;18.90;45.30
76567;DHT22;65428;53.194;6.132;2024-03-02T12:16:28;19.10;45.60
76567;DHT22;65428;53.194;6.132;2024-03-02T12:18:54;19.30;45.00
76567;DHT22;65428;53.194;6.132;2024-03-02T12:21:20;19.40;45.10
76567;DHT22;65428;53.194;6.132;2024-03-02T12:23:57;19.20;44.40
76567;DHT22;65428;53.194;6.132;2024-03-02T12:26:23;19.50;44.60
76567;DHT22;65428;53.194;6.132;2024-03-02T12:28:52;19.60;44.20
76567;DHT22;65428;53.194;6.132;2024-03-02T12:31:19;19.80;44.30
76567;DHT22;65428;53.194;6.132;2024-03-02T12:33:46;19.90;44.30
76567;DHT22;65428;53.194;6.132;2024-03-02T12:36:13;19.60;41.70
76567;DHT22;65428;53.194;6.132;2024-03-02T12:38:43;19.50;43.10
76567;DHT22;65428;53.194;6.132;2024-03-02T12:41:15;19.30;43.00
76567;DHT22;65428;53.194;6.132;2024-03-02T12:43:42;19.20;43.40
76567;DHT22;65428;53.194;6.132;2024-03-02T12:46:08;19.20;43.10
76567;DHT22;65428;53.194;6.132;2024-03-02T12:48:37;19.10;43.80
76567;DHT22;65428;53.194;6.132;2024-03-02T12:51:04;19.20;43.20
76567;DHT22;65428;53.194;6.132;2024-03-02T12:53:30;19.10;42.80
76567;DHT22;65428;53.194;6.132;2024-03-02T12:55:57;19.30;42.70
76567;DHT22;65428;53.194;6.132;2024-03-02T12:58:22;19.40;41.50
76567;DHT22;65428;53.194;6.132;2024-03-02T13:01:08;19.60;42.60
76567;DHT22;65428;53.194;6.132;2024-03-02T13:04:05;19.30;42.10
76567;DHT22;65428;53.194;6.132;2024-03-02T13:06:33;19.00;42.60
76567;DHT22;65428;53.194;6.132;2024-03-02T13:09:02;19.20;43.90
76567;DHT22;65428;53.194;6.132;2024-03-02T13:11:28;19.20;43.80
76567;DHT22;65428;53.194;6.132;2024-03-02T13:14:14;19.60;43.90
76567;DHT22;65428;53.194;6.132;2024-03-02T13:16:41;20.10;43.30
76567;DHT22;65428;53.194;6.132;2024-03-02T13:19:13;20.10;40.70
76567;DHT22;65428;53.194;6.132;2024-03-02T13:21:48;20.10;41.00
76567;DHT22;65428;53.194;6.132;2024-03-02T13:24:16;20.50;40.90
76567;DHT22;65428;53.194;6.132;2024-03-02T13:26:47;20.40;40.70
76567;DHT22;65428;53.194;6.132;2024-03-02T13:29:14;20.50;41.30
76567;DHT22;65428;53.194;6.132;2024-03-02T13:31:40;20.90;40.50
76567;DHT22;65428;53.194;6.132;2024-03-02T13:34:06;21.30;38.80
76567;DHT22;65428;53.194;6.132;2024-03-02T13:36:34;20.70;37.60
76567;DHT22;65428;53.194;6.132;2024-03-02T13:39:00;20.20;38.00
76567;DHT22;65428;53.194;6.132;2024-03-02T13:41:26;19.80;38.70
76567;DHT22;65428;53.194;6.132;2024-03-02T13:44:01;19.20;39.90
76567;DHT22;65428;53.194;6.132;2024-03-02T13:46:28;19.00;42.70
76567;DHT22;65428;53.194;6.132;2024-03-02T13:51:42;18.70;44.20
76567;DHT22;65428;53.194;6.132;2024-03-02T13:54:13;18.40;45.90
76567;DHT22;65428;53.194;6.132;2024-03-02T13:56:42;18.30;45.30
76567;DHT22;65428;53.194;6.132;2024-03-02T13:59:13;18.20;46.40
76567;DHT22;65428;53.194;6.132;2024-03-02T14:01:39;17.90;46.20
76567;DHT22;65428;53.194;6.132;2024-03-02T14:04:08;17.60;46.30
76567;DHT22;65428;53.194;6.132;2024-03-02T14:06:52;17.10;46.80
76567;DHT22;65428;53.194;6.132;2024-03-02T14:09:18;16.70;48.60
76567;DHT22;65428;53.194;6.132;2024-03-02T14:11:53;16.50;49.20
76567;DHT22;65428;53.194;6.132;2024-03-02T14:17:19;16.50;49.40
76567;DHT22;65428;53.194;6.132;2024-03-02T14:19:48;16.80;48.30
76567;DHT22;65428;53.194;6.132;2024-03-02T14:22:33;16.80;47.60
76567;DHT22;65428;53.194;6.132;2024-03-02T14:24:59;16.80;47.80
76567;DHT22;65428;53.194;6.132;2024-03-02T14:27:25;17.20;47.20
76567;DHT22;65428;53.194;6.132;2024-03-02T14:29:51;17.60;47.70
76567;DHT22;65428;53.194;6.132;2024-03-02T14:32:20;17.80;47.00
76567;DHT22;65428;53.194;6.132;2024-03-02T14:34:45;17.60;47.70
76567;DHT22;65428;53.194;6.132;2024-03-02T14:37:13;17.70;47.30
76567;DHT22;65428;53.194;6.132;2024-03-02T14:39:39;18.00;46.70
76567;DHT22;65428;53.194;6.132;2024-03-02T14:42:05;18.30;45.40
76567;DHT22;65428;53.194;6.132;2024-03-02T14:44:32;18.70;45.90
76567;DHT22;65428;53.194;6.132;2024-03-02T14:46:59;19.20;44.40
76567;DHT22;65428;53.194;6.132;2024-03-02T14:49:25;19.10;43.50
76567;DHT22;65428;53.194;6.132;2024-03-02T14:52:00;18.70;43.70
76567;DHT22;65428;53.194;6.132;2024-03-02T14:54:49;18.30;44.20
76567;DHT22;65428;53.194;6.132;2024-03-02T14:57:14;17.90;45.60
76567;DHT22;65428;53.194;6.132;2024-03-02T14:59:43;17.80;47.20
76567;DHT22;65428;53.194;6.132;2024-03-02T15:02:09;17.70;47.20
76567;DHT22;65428;53.194;6.132;2024-03-02T15:04:38;17.70;46.80
76567;DHT22;65428;53.194;6.132;2024-03-02T15:07:03;17.80;47.40
76567;DHT22;65428;53.194;6.132;2024-03-02T15:09:44;17.70;47.70
76567;DHT22;65428;53.194;6.132;2024-03-02T15:12:10;17.70;46.90
76567;DHT22;65428;53.194;6.132;2024-03-02T15:14:42;17.50;47.50
76567;DHT22;65428;53.194;6.132;2024-03-02T15:17:16;17.60;48.00
76567;DHT22;65428;53.194;6.132;2024-03-02T15:19:58;17.10;47.80
76567;DHT22;65428;53.194;6.132;2024-03-02T15:22:24;16.90;48.50
76567;DHT22;65428;53.194;6.132;2024-03-02T15:24:56;16.90;47.90
76567;DHT22;65428;53.194;6.132;2024-03-02T15:27:26;16.90;49.40
76567;DHT22;65428;53.194;6.132;2024-03-02T15:29:53;16.50;49.80
76567;DHT22;65428;53.194;6.132;2024-03-02T15:32:20;15.70;51.50
76567;DHT22;65428;53.194;6.132;2024-03-02T15:34:46;15.50;52.50
76567;DHT22;65428;53.194;6.132;2024-03-02T15:37:18;15.40;55.20
76567;DHT22;65428;53.194;6.132;2024-03-02T15:39:43;14.80;54.20
76567;DHT22;65428;53.194;6.132;2024-03-02T15:42:17;14.50;55.50
76567;DHT22;65428;53.194;6.132;2024-03-02T15:44:52;14.30;55.50
76567;DHT22;65428;53.194;6.132;2024-03-02T15:47:20;14.10;56.00
76567;DHT22;65428;53.194;6.132;2024-03-02T15:49:46;14.30;58.10
76567;DHT22;65428;53.194;6.132;2024-03-02T15:52:19;14.20;58.00
76567;DHT22;65428;53.194;6.132;2024-03-02T15:54:47;14.20;58.30
76567;DHT22;65428;53.194;6.132;2024-03-02T15:57:24;13.60;59.20
76567;DHT22;65428;53.194;6.132;2024-03-02T16:00:11;13.40;59.20
76567;DHT22;65428;53.194;6.132;2024-03-02T16:02:37;13.50;59.70
76567;DHT22;65428;53.194;6.132;2024-03-02T16:05:06;13.70;61.00
76567;DHT22;65428;53.194;6.132;2024-03-02T16:07:33;13.30;64.20